sensor_id;sensor_type;location;lat;lon;timestamp;temperature;humidity
3418;DHT22;68007;51.312;12.372;2023-08-06T00:01:16;21.30;89.30
3418;DHT22;68007;51.312;12.372;2023-08-06T00:03:44;21.20;89.30
3418;DHT22;68007;51.312;12.372;2023-08-06T00:06:12;21.20;89.40
3418;DHT22;68007;51.312;12.372;2023-08-06T00:08:39;21.20;89.50
3418;DHT22;68007;51.312;12.372;2023-08-06T00:11:08;21.20;89.50
3418;DHT22;68007;51.312;12.372;2023-08-06T00:13:36;21.20;89.50
3418;DHT22;68007;51.312;12.372;2023-08-06T00:16:10;21.20;89.70
3418;DHT22;68007;51.312;12.372;2023-08-06T00:18:38;21.20;89.50
3418;DHT22;68007;51.312;12.372;2023-08-06T00:21:05;21.10;89.40
3418;DHT22;68007;51.312;12.372;2023-08-06T00:23:33;21.10;89.50
3418;DHT22;68007;51.312;12.372;2023-08-06T00:26:00;21.10;89.60
3418;DHT22;68007;51.312;12.372;2023-08-06T00:28:29;21.10;89.80
3418;DHT22;68007;51.312;12.372;2023-08-06T00:30:57;21.10;89.80
3418;DHT22;68007;51.312;12.372;2023-08-06T00:33:25;21.10;89.90
3418;DHT22;68007;51.312;12.372;2023-08-06T00:35:52;21.10;89.60
3418;DHT22;68007;51.312;12.372;2023-08-06T00:38:20;21.00;89.90
3418;DHT22;68007;51.312;12.372;2023-08-06T00:40:47;21.00;90.00
3418;DHT22;68007;51.312;12.372;2023-08-06T00:43:15;21.00;90.00
3418;DHT22;68007;51.312;12.372;2023-08-06T00:45:44;21.00;90.10
3418;DHT22;68007;51.312;12.372;2023-08-06T00:48:11;21.00;90.10
3418;DHT22;68007;51.312;12.372;2023-08-06T00:50:39;21.00;90.10
3418;DHT22;68007;51.312;12.372;2023-08-06T00:53:07;21.00;90.20
3418;DHT22;68007;51.312;12.372;2023-08-06T00:55:34;21.00;90.20
3418;DHT22;68007;51.312;12.372;2023-08-06T00:58:02;21.00;90.20
3418;DHT22;68007;51.312;12.372;2023-08-06T01:00:30;20.90;90.20
3418;DHT22;68007;51.312;12.372;2023-08-06T01:03:00;20.90;90.20
3418;DHT22;68007;51.312;12.372;2023-08-06T01:05:27;21.00;90.30
3418;DHT22;68007;51.312;12.372;2023-08-06T01:08:09;21.00;90.30
3418;DHT22;68007;51.312;12.372;2023-08-06T01:10:49;21.00;90.20
3418;DHT22;68007;51.312;12.372;2023-08-06T01:13:24;21.00;90.30
3418;DHT22;68007;51.312;12.372;2023-08-06T01:15:55;20.90;90.30
3418;DHT22;68007;51.312;12.372;2023-08-06T01:18:25;20.90;90.40
3418;DHT22;68007;51.312;12.372;2023-08-06T01:20:54;20.90;90.40
3418;DHT22;68007;51.312;12.372;2023-08-06T01:23:22;20.90;90.40
3418;DHT22;68007;51.312;12.372;2023-08-06T01:26:01;20.90;90.40
3418;DHT22;68007;51.312;12.372;2023-08-06T01:28:40;20.90;90.30
3418;DHT22;68007;51.312;12.372;2023-08-06T01:31:14;20.90;90.40
3418;DHT22;68007;51.312;12.372;2023-08-06T01:33:45;20.90;90.40
3418;DHT22;68007;51.312;12.372;2023-08-06T01:36:16;20.80;90.50
3418;DHT22;68007;51.312;12.372;2023-08-06T01:38:44;20.90;90.50
3418;DHT22;68007;51.312;12.372;2023-08-06T01:41:12;20.90;90.60
3418;DHT22;68007;51.312;12.372;2023-08-06T01:43:39;20.90;90.60
3418;DHT22;68007;51.312;12.372;2023-08-06T01:46:07;20.90;90.70
3418;DHT22;68007;51.312;12.372;2023-08-06T01:48:35;20.80;90.70
3418;DHT22;68007;51.312;12.372;2023-08-06T01:51:04;20.80;90.70
3418;DHT22;68007;51.312;12.372;2023-08-06T01:53:33;20.80;90.70
3418;DHT22;68007;51.312;12.372;2023-08-06T01:56:00;20.80;90.80
3418;DHT22;68007;51.312;12.372;2023-08-06T01:58:28;20.80;90.80
3418;DHT22;68007;51.312;12.372;2023-08-06T02:00:55;20.80;90.80
3418;DHT22;68007;51.312;12.372;2023-08-06T02:03:23;20.80;90.80
3418;DHT22;68007;51.312;12.372;2023-08-06T02:05:50;20.80;90.80
3418;DHT22;68007;51.312;12.372;2023-08-06T02:08:18;20.80;90.90
3418;DHT22;68007;51.312;12.372;2023-08-06T02:10:47;20.70;90.90
3418;DHT22;68007;51.312;12.372;2023-08-06T02:13:14;20.80;91.00
3418;DHT22;68007;51.312;12.372;2023-08-06T02:15:42;20.70;91.00
3418;DHT22;68007;51.312;12.372;2023-08-06T02:18:10;20.70;91.00
3418;DHT22;68007;51.312;12.372;2023-08-06T02:20:38;20.70;91.00
3418;DHT22;68007;51.312;12.372;2023-08-06T02:23:05;20.70;91.00
3418;DHT22;68007;51.312;12.372;2023-08-06T02:25:33;20.70;91.10
3418;DHT22;68007;51.312;12.372;2023-08-06T02:28:02;20.70;91.10
3418;DHT22;68007;51.312;12.372;2023-08-06T02:30:29;20.70;91.20
3418;DHT22;68007;51.312;12.372;2023-08-06T02:32:57;20.70;91.20
3418;DHT22;68007;51.312;12.372;2023-08-06T02:35:24;20.70;91.30
3418;DHT22;68007;51.312;12.372;2023-08-06T02:37:52;20.70;91.30
3418;DHT22;68007;51.312;12.372;2023-08-06T02:40:19;20.70;91.30
3418;DHT22;68007;51.312;12.372;2023-08-06T02:42:47;20.70;91.40
3418;DHT22;68007;51.312;12.372;2023-08-06T02:45:16;20.70;91.40
3418;DHT22;68007;51.312;12.372;2023-08-06T02:47:43;20.60;91.40
3418;DHT22;68007;51.312;12.372;2023-08-06T02:50:10;20.60;91.50
3418;DHT22;68007;51.312;12.372;2023-08-06T02:52:38;20.60;91.50
3418;DHT22;68007;51.312;12.372;2023-08-06T02:55:06;20.60;91.50
3418;DHT22;68007;51.312;12.372;2023-08-06T02:57:34;20.60;91.60
3418;DHT22;68007;51.312;12.372;2023-08-06T03:00:02;20.60;91.60
3418;DHT22;68007;51.312;12.372;2023-08-06T03:02:31;20.60;91.60
3418;DHT22;68007;51.312;12.372;2023-08-06T03:04:59;20.60;91.70
3418;DHT22;68007;51.312;12.372;2023-08-06T03:07:26;20.50;91.80
3418;DHT22;68007;51.312;12.372;2023-08-06T03:09:54;20.60;91.80
3418;DHT22;68007;51.312;12.372;2023-08-06T03:12:21;20.60;91.90
3418;DHT22;68007;51.312;12.372;2023-08-06T03:14:49;20.50;91.90
3418;DHT22;68007;51.312;12.372;2023-08-06T03:17:16;20.50;92.00
3418;DHT22;68007;51.312;12.372;2023-08-06T03:19:45;20.50;92.00
3418;DHT22;68007;51.312;12.372;2023-08-06T03:22:13;20.50;92.00
3418;DHT22;68007;51.312;12.372;2023-08-06T03:24:40;20.50;92.10
3418;DHT22;68007;51.312;12.372;2023-08-06T03:27:08;20.50;92.10
3418;DHT22;68007;51.312;12.372;2023-08-06T03:29:35;20.50;92.10
3418;DHT22;68007;51.312;12.372;2023-08-06T03:32:03;20.50;92.10
3418;DHT22;68007;51.312;12.372;2023-08-06T03:34:30;20.50;92.20
3418;DHT22;68007;51.312;12.372;2023-08-06T03:36:59;20.40;92.20
3418;DHT22;68007;51.312;12.372;2023-08-06T03:39:27;20.50;92.30
3418;DHT22;68007;51.312;12.372;2023-08-06T03:41:54;20.50;92.30
3418;DHT22;68007;51.312;12.372;2023-08-06T03:44:21;20.50;92.30
3418;DHT22;68007;51.312;12.372;2023-08-06T03:46:49;20.40;92.30
3418;DHT22;68007;51.312;12.372;2023-08-06T03:49:16;20.40;92.30
3418;DHT22;68007;51.312;12.372;2023-08-06T03:51:44;20.40;92.40
3418;DHT22;68007;51.312;12.372;2023-08-06T03:54:13;20.40;92.40
3418;DHT22;68007;51.312;12.372;2023-08-06T03:56:41;20.40;92.40
3418;DHT22;68007;51.312;12.372;2023-08-06T03:59:08;20.40;92.50
3418;DHT22;68007;51.312;12.372;2023-08-06T04:01:36;20.40;92.50
3418;DHT22;68007;51.312;12.372;2023-08-06T04:04:03;20.40;92.50
3418;DHT22;68007;51.312;12.372;2023-08-06T04:06:31;20.40;92.50
3418;DHT22;68007;51.312;12.372;2023-08-06T04:08:58;20.30;92.60
3418;DHT22;68007;51.312;12.372;2023-08-06T04:11:27;20.40;92.60
3418;DHT22;68007;51.312;12.372;2023-08-06T04:13:54;20.40;92.60
3418;DHT22;68007;51.312;12.372;2023-08-06T04:16:22;20.40;92.50
3418;DHT22;68007;51.312;12.372;2023-08-06T04:18:49;20.40;92.50
3418;DHT22;68007;51.312;12.372;2023-08-06T04:21:17;20.40;92.60
3418;DHT22;68007;51.312;12.372;2023-08-06T04:23:44;20.30;92.60
3418;DHT22;68007;51.312;12.372;2023-08-06T04:26:12;20.40;92.60
3418;DHT22;68007;51.312;12.372;2023-08-06T04:28:41;20.30;92.60
3418;DHT22;68007;51.312;12.372;2023-08-06T04:31:08;20.30;92.60
3418;DHT22;68007;51.312;12.372;2023-08-06T04:33:36;20.30;92.60
3418;DHT22;68007;51.312;12.372;2023-08-06T04:36:03;20.30;92.50
3418;DHT22;68007;51.312;12.372;2023-08-06T04:38:31;20.30;92.60
3418;DHT22;68007;51.312;12.372;2023-08-06T04:40:59;20.30;92.50
3418;DHT22;68007;51.312;12.372;2023-08-06T04:43:26;20.30;92.60
3418;DHT22;68007;51.312;12.372;2023-08-06T04:45:55;20.30;92.60
3418;DHT22;68007;51.312;12.372;2023-08-06T04:48:23;20.30;92.50
3418;DHT22;68007;51.312;12.372;2023-08-06T04:50:51;20.20;92.40
3418;DHT22;68007;51.312;12.372;2023-08-06T04:53:18;20.20;92.30
3418;DHT22;68007;51.312;12.372;2023-08-06T04:55:46;20.20;92.60
3418;DHT22;68007;51.312;12.372;2023-08-06T04:58:14;20.20;92.70
3418;DHT22;68007;51.312;12.372;2023-08-06T05:00:42;20.20;92.60
3418;DHT22;68007;51.312;12.372;2023-08-06T05:03:11;20.10;92.50
3418;DHT22;68007;51.312;12.372;2023-08-06T05:05:40;20.10;92.90
3418;DHT22;68007;51.312;12.372;2023-08-06T05:08:07;20.10;92.70
3418;DHT22;68007;51.312;12.372;2023-08-06T05:10:35;20.10;92.70
3418;DHT22;68007;51.312;12.372;2023-08-06T05:13:02;20.10;92.40
3418;DHT22;68007;51.312;12.372;2023-08-06T05:15:30;20.20;92.70
3418;DHT22;68007;51.312;12.372;2023-08-06T05:17:57;20.20;92.40
3418;DHT22;68007;51.312;12.372;2023-08-06T05:20:26;20.10;92.50
3418;DHT22;68007;51.312;12.372;2023-08-06T05:22:53;20.10;92.60
3418;DHT22;68007;51.312;12.372;2023-08-06T05:25:21;20.10;92.60
3418;DHT22;68007;51.312;12.372;2023-08-06T05:27:48;20.10;92.90
3418;DHT22;68007;51.312;12.372;2023-08-06T05:30:16;20.10;92.70
3418;DHT22;68007;51.312;12.372;2023-08-06T05:32:43;20.10;92.70
3418;DHT22;68007;51.312;12.372;2023-08-06T05:35:11;20.10;92.70
3418;DHT22;68007;51.312;12.372;2023-08-06T05:37:40;20.10;92.60
3418;DHT22;68007;51.312;12.372;2023-08-06T05:40:08;20.10;92.30
3418;DHT22;68007;51.312;12.372;2023-08-06T05:42:36;20.00;92.60
3418;DHT22;68007;51.312;12.372;2023-08-06T05:45:04;20.00;92.60
3418;DHT22;68007;51.312;12.372;2023-08-06T05:47:32;20.00;92.50
3418;DHT22;68007;51.312;12.372;2023-08-06T05:49:59;19.90;92.80
3418;DHT22;68007;51.312;12.372;2023-08-06T05:52:27;19.90;92.80
3418;DHT22;68007;51.312;12.372;2023-08-06T05:54:55;19.80;92.80
3418;DHT22;68007;51.312;12.372;2023-08-06T05:57:23;19.90;92.80
3418;DHT22;68007;51.312;12.372;2023-08-06T05:59:50;19.90;92.70
3418;DHT22;68007;51.312;12.372;2023-08-06T06:02:18;19.80;92.70
3418;DHT22;68007;51.312;12.372;2023-08-06T06:04:45;19.90;92.80
3418;DHT22;68007;51.312;12.372;2023-08-06T06:07:13;19.90;92.80
3418;DHT22;68007;51.312;12.372;2023-08-06T06:09:40;19.90;92.60
3418;DHT22;68007;51.312;12.372;2023-08-06T06:12:09;19.90;92.80
3418;DHT22;68007;51.312;12.372;2023-08-06T06:14:37;19.90;92.80
3418;DHT22;68007;51.312;12.372;2023-08-06T06:17:04;19.90;92.90
3418;DHT22;68007;51.312;12.372;2023-08-06T06:19:32;20.00;92.80
3418;DHT22;68007;51.312;12.372;2023-08-06T06:21:59;20.00;92.60
3418;DHT22;68007;51.312;12.372;2023-08-06T06:24:27;20.00;92.70
3418;DHT22;68007;51.312;12.372;2023-08-06T06:26:54;20.00;92.60
3418;DHT22;68007;51.312;12.372;2023-08-06T06:29:23;19.90;92.60
3418;DHT22;68007;51.312;12.372;2023-08-06T06:31:51;19.90;92.80
3418;DHT22;68007;51.312;12.372;2023-08-06T06:34:18;19.90;92.80
3418;DHT22;68007;51.312;12.372;2023-08-06T06:36:46;19.90;92.70
3418;DHT22;68007;51.312;12.372;2023-08-06T06:39:13;19.90;92.60
3418;DHT22;68007;51.312;12.372;2023-08-06T06:41:41;20.00;92.50
3418;DHT22;68007;51.312;12.372;2023-08-06T06:44:08;19.80;92.20
3418;DHT22;68007;51.312;12.372;2023-08-06T06:46:37;19.70;92.60
3418;DHT22;68007;51.312;12.372;2023-08-06T06:49:04;19.60;92.80
3418;DHT22;68007;51.312;12.372;2023-08-06T06:51:32;19.70;92.80
3418;DHT22;68007;51.312;12.372;2023-08-06T06:53:59;19.70;92.70
3418;DHT22;68007;51.312;12.372;2023-08-06T06:56:27;19.60;92.60
3418;DHT22;68007;51.312;12.372;2023-08-06T06:58:54;19.60;93.00
3418;DHT22;68007;51.312;12.372;2023-08-06T07:01:22;19.50;92.90
3418;DHT22;68007;51.312;12.372;2023-08-06T07:03:51;19.60;92.90
3418;DHT22;68007;51.312;12.372;2023-08-06T07:06:18;19.50;92.90
3418;DHT22;68007;51.312;12.372;2023-08-06T07:08:46;19.40;93.10
3418;DHT22;68007;51.312;12.372;2023-08-06T07:11:13;19.40;93.30
3418;DHT22;68007;51.312;12.372;2023-08-06T07:13:41;19.40;93.30
3418;DHT22;68007;51.312;12.372;2023-08-06T07:16:08;19.40;93.10
3418;DHT22;68007;51.312;12.372;2023-08-06T07:18:35;19.30;93.10
3418;DHT22;68007;51.312;12.372;2023-08-06T07:21:04;19.40;93.30
3418;DHT22;68007;51.312;12.372;2023-08-06T07:23:32;19.40;93.00
3418;DHT22;68007;51.312;12.372;2023-08-06T07:25:59;19.40;93.00
3418;DHT22;68007;51.312;12.372;2023-08-06T07:28:27;19.30;93.00
3418;DHT22;68007;51.312;12.372;2023-08-06T07:30:54;19.30;93.40
3418;DHT22;68007;51.312;12.372;2023-08-06T07:33:22;19.30;93.20
3418;DHT22;68007;51.312;12.372;2023-08-06T07:35:49;19.30;93.20
3418;DHT22;68007;51.312;12.372;2023-08-06T07:38:18;19.30;93.30
3418;DHT22;68007;51.312;12.372;2023-08-06T07:40:45;19.20;93.30
3418;DHT22;68007;51.312;12.372;2023-08-06T07:43:13;19.20;93.20
3418;DHT22;68007;51.312;12.372;2023-08-06T07:45:41;19.20;93.20
3418;DHT22;68007;51.312;12.372;2023-08-06T07:48:08;19.20;93.00
3418;DHT22;68007;51.312;12.372;2023-08-06T07:50:36;19.20;93.10
3418;DHT22;68007;51.312;12.372;2023-08-06T07:53:03;19.20;93.00
3418;DHT22;68007;51.312;12.372;2023-08-06T07:55:32;19.30;92.90
3418;DHT22;68007;51.312;12.372;2023-08-06T07:58:00;19.30;92.90
3418;DHT22;68007;51.312;12.372;2023-08-06T08:00:27;19.40;92.70
3418;DHT22;68007;51.312;12.372;2023-08-06T08:02:55;19.40;92.50
3418;DHT22;68007;51.312;12.372;2023-08-06T08:05:22;19.40;92.70
3418;DHT22;68007;51.312;12.372;2023-08-06T08:07:50;19.40;92.70
3418;DHT22;68007;51.312;12.372;2023-08-06T08:10:17;19.40;92.70
3418;DHT22;68007;51.312;12.372;2023-08-06T08:12:46;19.50;92.70
3418;DHT22;68007;51.312;12.372;2023-08-06T08:15:14;19.50;92.60
3418;DHT22;68007;51.312;12.372;2023-08-06T08:17:42;19.50;92.60
3418;DHT22;68007;51.312;12.372;2023-08-06T08:20:10;19.60;92.60
3418;DHT22;68007;51.312;12.372;2023-08-06T08:22:38;19.60;92.60
3418;DHT22;68007;51.312;12.372;2023-08-06T08:25:06;19.60;92.60
3418;DHT22;68007;51.312;12.372;2023-08-06T08:27:33;19.70;92.60
3418;DHT22;68007;51.312;12.372;2023-08-06T08:30:02;19.60;92.40
3418;DHT22;68007;51.312;12.372;2023-08-06T08:32:30;19.70;92.30
3418;DHT22;68007;51.312;12.372;2023-08-06T08:34:58;19.70;92.20
3418;DHT22;68007;51.312;12.372;2023-08-06T08:37:25;19.70;92.20
3418;DHT22;68007;51.312;12.372;2023-08-06T08:39:53;19.70;92.20
3418;DHT22;68007;51.312;12.372;2023-08-06T08:42:20;19.70;92.20
3418;DHT22;68007;51.312;12.372;2023-08-06T08:44:48;19.70;92.20
3418;DHT22;68007;51.312;12.372;2023-08-06T08:47:17;19.70;92.60
3418;DHT22;68007;51.312;12.372;2023-08-06T08:49:44;19.70;92.30
3418;DHT22;68007;51.312;12.372;2023-08-06T08:52:15;19.70;92.20
3418;DHT22;68007;51.312;12.372;2023-08-06T08:54:44;19.80;92.30
3418;DHT22;68007;51.312;12.372;2023-08-06T08:57:13;19.70;92.30
3418;DHT22;68007;51.312;12.372;2023-08-06T08:59:40;19.70;92.30
3418;DHT22;68007;51.312;12.372;2023-08-06T09:02:09;19.80;92.30
3418;DHT22;68007;51.312;12.372;2023-08-06T09:04:40;19.80;92.30
3418;DHT22;68007;51.312;12.372;2023-08-06T09:07:09;19.80;92.30
3418;DHT22;68007;51.312;12.372;2023-08-06T09:09:39;19.90;92.30
3418;DHT22;68007;51.312;12.372;2023-08-06T09:12:12;19.90;92.40
3418;DHT22;68007;51.312;12.372;2023-08-06T09:14:41;19.90;92.30
3418;DHT22;68007;51.312;12.372;2023-08-06T09:17:08;19.80;92.40
3418;DHT22;68007;51.312;12.372;2023-08-06T09:19:36;19.80;92.40
3418;DHT22;68007;51.312;12.372;2023-08-06T09:22:05;19.80;92.70
3418;DHT22;68007;51.312;12.372;2023-08-06T09:24:38;19.80;92.40
3418;DHT22;68007;51.312;12.372;2023-08-06T09:27:10;19.80;92.60
3418;DHT22;68007;51.312;12.372;2023-08-06T09:29:40;19.80;92.70
3418;DHT22;68007;51.312;12.372;2023-08-06T09:32:08;19.80;92.60
3418;DHT22;68007;51.312;12.372;2023-08-06T09:34:38;19.90;92.30
3418;DHT22;68007;51.312;12.372;2023-08-06T09:37:08;20.00;92.50
3418;DHT22;68007;51.312;12.372;2023-08-06T09:39:38;20.00;92.00
3418;DHT22;68007;51.312;12.372;2023-08-06T09:42:06;19.90;91.90
3418;DHT22;68007;51.312;12.372;2023-08-06T09:44:34;19.90;92.10
3418;DHT22;68007;51.312;12.372;2023-08-06T09:47:03;19.90;92.00
3418;DHT22;68007;51.312;12.372;2023-08-06T09:49:41;19.90;92.10
3418;DHT22;68007;51.312;12.372;2023-08-06T09:52:12;20.00;91.80
3418;DHT22;68007;51.312;12.372;2023-08-06T09:54:43;19.90;91.80
3418;DHT22;68007;51.312;12.372;2023-08-06T09:57:12;19.90;91.70
3418;DHT22;68007;51.312;12.372;2023-08-06T09:59:41;20.00;91.70
3418;DHT22;68007;51.312;12.372;2023-08-06T10:02:13;19.90;91.20
3418;DHT22;68007;51.312;12.372;2023-08-06T10:04:43;19.90;91.30
3418;DHT22;68007;51.312;12.372;2023-08-06T10:07:13;19.90;91.30
3418;DHT22;68007;51.312;12.372;2023-08-06T10:09:42;19.90;91.10
3418;DHT22;68007;51.312;12.372;2023-08-06T10:12:09;19.90;91.20
3418;DHT22;68007;51.312;12.372;2023-08-06T10:14:38;19.90;91.30
3418;DHT22;68007;51.312;12.372;2023-08-06T10:17:08;20.00;91.10
3418;DHT22;68007;51.312;12.372;2023-08-06T10:19:36;20.00;91.20
3418;DHT22;68007;51.312;12.372;2023-08-06T10:22:11;20.00;91.20
3418;DHT22;68007;51.312;12.372;2023-08-06T10:24:50;20.10;91.10
3418;DHT22;68007;51.312;12.372;2023-08-06T10:27:23;20.10;91.10
3418;DHT22;68007;51.312;12.372;2023-08-06T10:29:50;20.10;91.00
3418;DHT22;68007;51.312;12.372;2023-08-06T10:32:18;20.10;91.00
3418;DHT22;68007;51.312;12.372;2023-08-06T10:34:56;20.20;91.00
3418;DHT22;68007;51.312;12.372;2023-08-06T10:37:24;20.20;90.90
3418;DHT22;68007;51.312;12.372;2023-08-06T10:39:53;20.30;90.90
3418;DHT22;68007;51.312;12.372;2023-08-06T10:42:21;20.30;90.80
3418;DHT22;68007;51.312;12.372;2023-08-06T10:45:11;20.30;91.00
3418;DHT22;68007;51.312;12.372;2023-08-06T10:47:39;20.40;90.70
3418;DHT22;68007;51.312;12.372;2023-08-06T10:50:07;20.40;90.70
3418;DHT22;68007;51.312;12.372;2023-08-06T10:52:35;20.40;90.60
3418;DHT22;68007;51.312;12.372;2023-08-06T10:55:05;20.50;90.70
3418;DHT22;68007;51.312;12.372;2023-08-06T10:57:33;20.50;90.40
3418;DHT22;68007;51.312;12.372;2023-08-06T11:00:00;20.50;90.50
3418;DHT22;68007;51.312;12.372;2023-08-06T11:02:28;20.60;90.50
3418;DHT22;68007;51.312;12.372;2023-08-06T11:05:05;20.60;90.50
3418;DHT22;68007;51.312;12.372;2023-08-06T11:07:33;20.60;90.40
3418;DHT22;68007;51.312;12.372;2023-08-06T11:10:07;20.70;90.60
3418;DHT22;68007;51.312;12.372;2023-08-06T11:12:35;20.70;90.20
3418;DHT22;68007;51.312;12.372;2023-08-06T11:15:03;20.70;90.30
3418;DHT22;68007;51.312;12.372;2023-08-06T11:17:32;20.70;90.70
3418;DHT22;68007;51.312;12.372;2023-08-06T11:20:01;20.70;90.60
3418;DHT22;68007;51.312;12.372;2023-08-06T11:22:28;20.80;90.40
3418;DHT22;68007;51.312;12.372;2023-08-06T11:24:56;20.80;90.80
3418;DHT22;68007;51.312;12.372;2023-08-06T11:27:26;20.90;90.20
3418;DHT22;68007;51.312;12.372;2023-08-06T11:29:54;20.90;90.30
3418;DHT22;68007;51.312;12.372;2023-08-06T11:32:22;20.90;90.40
3418;DHT22;68007;51.312;12.372;2023-08-06T11:34:50;21.00;90.20
3418;DHT22;68007;51.312;12.372;2023-08-06T11:37:21;21.00;90.10
3418;DHT22;68007;51.312;12.372;2023-08-06T11:39:49;21.00;89.60
3418;DHT22;68007;51.312;12.372;2023-08-06T11:42:17;21.00;89.80
3418;DHT22;68007;51.312;12.372;2023-08-06T11:44:46;21.10;90.30
3418;DHT22;68007;51.312;12.372;2023-08-06T11:47:16;21.10;89.50
3418;DHT22;68007;51.312;12.372;2023-08-06T11:49:45;21.10;88.60
3418;DHT22;68007;51.312;12.372;2023-08-06T11:52:15;21.10;88.60
3418;DHT22;68007;51.312;12.372;2023-08-06T11:54:46;21.10;88.80
3418;DHT22;68007;51.312;12.372;2023-08-06T11:57:13;21.10;88.90
3418;DHT22;68007;51.312;12.372;2023-08-06T11:59:42;21.10;87.70
3418;DHT22;68007;51.312;12.372;2023-08-06T12:02:11;21.20;86.90
3418;DHT22;68007;51.312;12.372;2023-08-06T12:04:58;21.20;86.30
3418;DHT22;68007;51.312;12.372;2023-08-06T12:07:28;21.20;86.30
3418;DHT22;68007;51.312;12.372;2023-08-06T12:09:55;21.10;86.90
3418;DHT22;68007;51.312;12.372;2023-08-06T12:12:23;21.20;87.30
3418;DHT22;68007;51.312;12.372;2023-08-06T12:14:50;21.30;87.30
3418;DHT22;68007;51.312;12.372;2023-08-06T12:17:19;21.40;87.40
3418;DHT22;68007;51.312;12.372;2023-08-06T12:19:47;21.40;87.50
3418;DHT22;68007;51.312;12.372;2023-08-06T12:22:15;21.40;86.10
3418;DHT22;68007;51.312;12.372;2023-08-06T12:24:43;21.50;87.10
3418;DHT22;68007;51.312;12.372;2023-08-06T12:27:11;21.50;87.30
3418;DHT22;68007;51.312;12.372;2023-08-06T12:29:41;21.50;86.70
3418;DHT22;68007;51.312;12.372;2023-08-06T12:32:08;21.60;87.00
3418;DHT22;68007;51.312;12.372;2023-08-06T12:34:37;21.70;86.90
3418;DHT22;68007;51.312;12.372;2023-08-06T12:37:05;21.70;87.20
3418;DHT22;68007;51.312;12.372;2023-08-06T12:39:33;21.80;86.20
3418;DHT22;68007;51.312;12.372;2023-08-06T12:42:01;21.80;86.50
3418;DHT22;68007;51.312;12.372;2023-08-06T12:44:29;21.80;85.70
3418;DHT22;68007;51.312;12.372;2023-08-06T12:46:56;21.80;85.20
3418;DHT22;68007;51.312;12.372;2023-08-06T12:49:25;21.80;85.60
3418;DHT22;68007;51.312;12.372;2023-08-06T12:51:54;21.90;85.60
3418;DHT22;68007;51.312;12.372;2023-08-06T12:54:23;22.00;85.30
3418;DHT22;68007;51.312;12.372;2023-08-06T12:56:51;21.90;85.50
3418;DHT22;68007;51.312;12.372;2023-08-06T12:59:18;21.90;83.30
3418;DHT22;68007;51.312;12.372;2023-08-06T13:01:46;22.00;83.10
3418;DHT22;68007;51.312;12.372;2023-08-06T13:04:14;22.00;83.50
3418;DHT22;68007;51.312;12.372;2023-08-06T13:06:41;22.00;83.00
3418;DHT22;68007;51.312;12.372;2023-08-06T13:09:10;22.00;82.90
3418;DHT22;68007;51.312;12.372;2023-08-06T13:11:38;22.00;82.30
3418;DHT22;68007;51.312;12.372;2023-08-06T13:14:07;21.90;82.70
3418;DHT22;68007;51.312;12.372;2023-08-06T13:16:35;21.90;83.50
3418;DHT22;68007;51.312;12.372;2023-08-06T13:19:03;21.90;83.20
3418;DHT22;68007;51.312;12.372;2023-08-06T13:21:35;21.90;83.10
3418;DHT22;68007;51.312;12.372;2023-08-06T13:24:03;21.90;83.90
3418;DHT22;68007;51.312;12.372;2023-08-06T13:26:32;21.90;84.40
3418;DHT22;68007;51.312;12.372;2023-08-06T13:29:00;21.90;83.30
3418;DHT22;68007;51.312;12.372;2023-08-06T13:31:28;22.00;83.60
3418;DHT22;68007;51.312;12.372;2023-08-06T13:33:56;22.00;83.80
3418;DHT22;68007;51.312;12.372;2023-08-06T13:36:25;22.00;84.30
3418;DHT22;68007;51.312;12.372;2023-08-06T13:38:53;22.00;82.70
3418;DHT22;68007;51.312;12.372;2023-08-06T13:41:21;22.10;83.30
3418;DHT22;68007;51.312;12.372;2023-08-06T13:43:51;22.10;83.10
3418;DHT22;68007;51.312;12.372;2023-08-06T13:46:18;22.10;82.60
3418;DHT22;68007;51.312;12.372;2023-08-06T13:48:47;22.20;83.10
3418;DHT22;68007;51.312;12.372;2023-08-06T13:51:17;22.20;83.50
3418;DHT22;68007;51.312;12.372;2023-08-06T13:53:45;22.30;83.80
3418;DHT22;68007;51.312;12.372;2023-08-06T13:56:12;22.30;84.00
3418;DHT22;68007;51.312;12.372;2023-08-06T13:58:41;22.50;84.50
3418;DHT22;68007;51.312;12.372;2023-08-06T14:01:12;22.60;84.80
3418;DHT22;68007;51.312;12.372;2023-08-06T14:03:40;22.70;84.80
3418;DHT22;68007;51.312;12.372;2023-08-06T14:06:07;22.80;84.50
3418;DHT22;68007;51.312;12.372;2023-08-06T14:08:35;22.90;84.30
3418;DHT22;68007;51.312;12.372;2023-08-06T14:11:02;23.00;83.30
3418;DHT22;68007;51.312;12.372;2023-08-06T14:13:31;23.10;83.30
3418;DHT22;68007;51.312;12.372;2023-08-06T14:15:58;23.20;82.80
3418;DHT22;68007;51.312;12.372;2023-08-06T14:18:27;23.20;82.00
3418;DHT22;68007;51.312;12.372;2023-08-06T14:20:55;23.30;82.30
3418;DHT22;68007;51.312;12.372;2023-08-06T14:23:22;23.40;82.70
3418;DHT22;68007;51.312;12.372;2023-08-06T14:25:50;23.60;82.30
3418;DHT22;68007;51.312;12.372;2023-08-06T14:28:17;23.60;80.70
3418;DHT22;68007;51.312;12.372;2023-08-06T14:30:44;23.70;81.20
3418;DHT22;68007;51.312;12.372;2023-08-06T14:33:12;23.80;81.20
3418;DHT22;68007;51.312;12.372;2023-08-06T14:35:41;23.80;80.10
3418;DHT22;68007;51.312;12.372;2023-08-06T14:38:08;23.90;80.00
3418;DHT22;68007;51.312;12.372;2023-08-06T14:40:36;23.90;78.10
3418;DHT22;68007;51.312;12.372;2023-08-06T14:43:04;23.90;75.60
3418;DHT22;68007;51.312;12.372;2023-08-06T14:45:32;23.90;74.30
3418;DHT22;68007;51.312;12.372;2023-08-06T14:47:59;23.90;75.70
3418;DHT22;68007;51.312;12.372;2023-08-06T14:50:27;23.90;73.70
3418;DHT22;68007;51.312;12.372;2023-08-06T14:52:56;23.90;74.10
3418;DHT22;68007;51.312;12.372;2023-08-06T14:55:24;24.00;74.50
3418;DHT22;68007;51.312;12.372;2023-08-06T14:57:52;24.00;74.20
3418;DHT22;68007;51.312;12.372;2023-08-06T15:00:20;24.20;75.30
3418;DHT22;68007;51.312;12.372;2023-08-06T15:02:47;24.20;73.60
3418;DHT22;68007;51.312;12.372;2023-08-06T15:05:15;24.20;73.70
3418;DHT22;68007;51.312;12.372;2023-08-06T15:07:42;24.20;74.50
3418;DHT22;68007;51.312;12.372;2023-08-06T15:10:11;24.20;74.70
3418;DHT22;68007;51.312;12.372;2023-08-06T15:12:39;24.30;75.20
3418;DHT22;68007;51.312;12.372;2023-08-06T15:15:08;24.30;74.50
3418;DHT22;68007;51.312;12.372;2023-08-06T15:17:35;24.30;74.30
3418;DHT22;68007;51.312;12.372;2023-08-06T15:20:04;24.30;74.80
3418;DHT22;68007;51.312;12.372;2023-08-06T15:22:31;24.30;74.30
3418;DHT22;68007;51.312;12.372;2023-08-06T15:24:59;24.20;73.90
3418;DHT22;68007;51.312;12.372;2023-08-06T15:27:29;24.30;74.50
3418;DHT22;68007;51.312;12.372;2023-08-06T15:29:56;24.30;74.50
3418;DHT22;68007;51.312;12.372;2023-08-06T15:32:24;24.20;74.40
3418;DHT22;68007;51.312;12.372;2023-08-06T15:34:52;24.20;74.60
3418;DHT22;68007;51.312;12.372;2023-08-06T15:37:20;24.20;74.20